TimeEDT,TemperatureF,Dew PointF,Humidity,Sea Level PressureIn,VisibilityMPH,Wind Direction,Wind SpeedMPH,Gust SpeedMPH,PrecipitationIn,Events,Conditions,WindDirDegrees,DateUTC
12:52 AM,51.1,43.0,74,29.96,10.0,SSW,8.1,-,N/A,,Clear,200,2013-10-22 04:52:00
1:52 AM,48.0,43.0,83,29.95,10.0,South,3.5,-,N/A,,Clear,190,2013-10-22 05:52:00
2:52 AM,46.0,42.1,86,29.94,10.0,WSW,3.5,-,N/A,,Clear,240,2013-10-22 06:52:00
3:52 AM,46.9,44.1,90,29.92,10.0,Calm,Calm,-,N/A,,Clear,0,2013-10-22 07:52:00
4:52 AM,45.0,44.1,97,29.90,10.0,SE,3.5,-,N/A,,Clear,130,2013-10-22 08:52:00
5:52 AM,48.9,46.0,90,29.88,10.0,SSE,4.6,-,N/A,,Clear,150,2013-10-22 09:52:00
6:52 AM,45.0,43.0,93,29.87,10.0,Calm,Calm,-,N/A,,Clear,0,2013-10-22 10:52:00
7:52 AM,51.1,46.9,86,29.85,10.0,Calm,Calm,-,N/A,,Clear,0,2013-10-22 11:52:00
8:52 AM,55.0,48.0,77,29.84,10.0,South,6.9,-,N/A,,Clear,170,2013-10-22 12:52:00
9:52 AM,55.9,46.9,72,29.82,10.0,South,10.4,-,N/A,,Overcast,190,2013-10-22 13:52:00
10:52 AM,57.0,46.9,69,29.80,10.0,SSW,11.5,21.9,N/A,,Mostly Cloudy,200,2013-10-22 14:52:00
11:52 AM,57.0,46.9,69,29.79,10.0,SSW,11.5,-,N/A,,Overcast,200,2013-10-22 15:52:00
12:52 PM,57.9,46.0,65,29.75,10.0,SSW,13.8,19.6,N/A,,Unknown,210,2013-10-22 16:52:00
1:52 PM,59.0,46.9,64,29.74,10.0,SW,9.2,-,N/A,,Overcast,220,2013-10-22 17:52:00
2:52 PM,57.0,50.0,77,29.73,9.0,SSW,8.1,-,0.00,Rain,Light Rain,210,2013-10-22 18:52:00
3:52 PM,57.0,50.0,77,29.73,10.0,SSW,5.8,-,0.01,,Overcast,210,2013-10-22 19:52:00
4:52 PM,57.0,48.9,74,29.73,10.0,SW,6.9,-,N/A,,Partly Cloudy,230,2013-10-22 20:52:00
5:17 PM,52.0,43.0,71,29.75,10.0,WNW,17.3,21.9,N/A,,Overcast,300,2013-10-22 21:17:00
5:52 PM,51.1,42.1,71,29.76,10.0,NW,5.8,-,N/A,,Mostly Cloudy,320,2013-10-22 21:52:00
6:52 PM,48.9,39.0,69,29.77,10.0,Calm,Calm,-,N/A,,Mostly Cloudy,0,2013-10-22 22:52:00
7:52 PM,48.9,39.0,69,29.77,10.0,Calm,Calm,-,N/A,,Overcast,0,2013-10-22 23:52:00
8:52 PM,48.0,37.9,68,29.78,10.0,WNW,3.5,-,N/A,,Overcast,290,2013-10-23 00:52:00
9:52 PM,46.0,37.0,71,29.80,10.0,Calm,Calm,-,N/A,,Clear,0,2013-10-23 01:52:00
10:52 PM,45.0,35.1,68,29.80,10.0,NW,3.5,-,N/A,,Clear,310,2013-10-23 02:52:00
11:52 PM,37.9,35.1,89,29.79,10.0,Calm,Calm,-,N/A,,Clear,0,2013-10-23 03:52:00